sensor_id;sensor_type;location;lat;lon;timestamp;P1;durP1;ratioP1;P2;durP2;ratioP2
48975;SDS011;34791;52.752;8.346;2023-03-12T00:01:55;14.90;;;7.63;;
48975;SDS011;34791;52.752;8.346;2023-03-12T00:04:20;17.10;;;7.83;;
48975;SDS011;34791;52.752;8.346;2023-03-12T00:06:46;18.17;;;7.87;;
48975;SDS011;34791;52.752;8.346;2023-03-12T00:09:11;20.43;;;7.90;;
48975;SDS011;34791;52.752;8.346;2023-03-12T00:11:36;16.33;;;7.67;;
48975;SDS011;34791;52.752;8.346;2023-03-12T00:14:02;16.30;;;8.00;;
48975;SDS011;34791;52.752;8.346;2023-03-12T00:16:27;11.77;;;7.17;;
48975;SDS011;34791;52.752;8.346;2023-03-12T00:18:54;17.37;;;7.70;;
48975;SDS011;34791;52.752;8.346;2023-03-12T00:21:19;19.13;;;8.30;;
48975;SDS011;34791;52.752;8.346;2023-03-12T00:23:46;23.23;;;8.50;;
48975;SDS011;34791;52.752;8.346;2023-03-12T00:26:13;16.30;;;7.60;;
48975;SDS011;34791;52.752;8.346;2023-03-12T00:28:39;16.97;;;7.47;;
48975;SDS011;34791;52.752;8.346;2023-03-12T00:31:27;20.83;;;7.63;;
48975;SDS011;34791;52.752;8.346;2023-03-12T00:33:53;15.63;;;7.40;;
48975;SDS011;34791;52.752;8.346;2023-03-12T00:36:20;13.10;;;6.90;;
48975;SDS011;34791;52.752;8.346;2023-03-12T00:38:49;14.77;;;7.20;;
48975;SDS011;34791;52.752;8.346;2023-03-12T00:41:15;21.40;;;8.30;;
48975;SDS011;34791;52.752;8.346;2023-03-12T00:43:41;12.43;;;6.90;;
48975;SDS011;34791;52.752;8.346;2023-03-12T00:46:06;15.40;;;7.27;;
48975;SDS011;34791;52.752;8.346;2023-03-12T00:48:31;16.53;;;7.93;;
48975;SDS011;34791;52.752;8.346;2023-03-12T00:50:57;14.00;;;7.67;;
48975;SDS011;34791;52.752;8.346;2023-03-12T00:53:22;20.67;;;7.77;;
48975;SDS011;34791;52.752;8.346;2023-03-12T00:55:48;17.30;;;8.10;;
48975;SDS011;34791;52.752;8.346;2023-03-12T00:58:13;18.03;;;8.60;;
48975;SDS011;34791;52.752;8.346;2023-03-12T01:00:39;18.77;;;8.27;;
48975;SDS011;34791;52.752;8.346;2023-03-12T01:03:04;18.63;;;8.37;;
48975;SDS011;34791;52.752;8.346;2023-03-12T01:05:30;15.93;;;8.47;;
48975;SDS011;34791;52.752;8.346;2023-03-12T01:07:56;20.20;;;8.70;;
48975;SDS011;34791;52.752;8.346;2023-03-12T01:10:21;18.63;;;8.60;;
48975;SDS011;34791;52.752;8.346;2023-03-12T01:12:47;25.43;;;9.47;;
48975;SDS011;34791;52.752;8.346;2023-03-12T01:15:13;20.67;;;8.67;;
48975;SDS011;34791;52.752;8.346;2023-03-12T01:17:40;17.93;;;8.93;;
48975;SDS011;34791;52.752;8.346;2023-03-12T01:20:06;17.73;;;8.93;;
48975;SDS011;34791;52.752;8.346;2023-03-12T01:22:33;19.33;;;9.93;;
48975;SDS011;34791;52.752;8.346;2023-03-12T01:24:59;21.40;;;9.10;;
48975;SDS011;34791;52.752;8.346;2023-03-12T01:27:24;22.60;;;9.60;;
48975;SDS011;34791;52.752;8.346;2023-03-12T01:29:50;27.30;;;10.13;;
48975;SDS011;34791;52.752;8.346;2023-03-12T01:32:15;20.17;;;9.93;;
48975;SDS011;34791;52.752;8.346;2023-03-12T01:34:41;23.53;;;9.47;;
48975;SDS011;34791;52.752;8.346;2023-03-12T01:37:07;24.23;;;10.27;;
48975;SDS011;34791;52.752;8.346;2023-03-12T01:39:32;21.07;;;10.40;;
48975;SDS011;34791;52.752;8.346;2023-03-12T01:41:58;25.53;;;10.73;;
48975;SDS011;34791;52.752;8.346;2023-03-12T01:44:23;24.73;;;10.47;;
48975;SDS011;34791;52.752;8.346;2023-03-12T01:46:48;28.70;;;11.10;;
48975;SDS011;34791;52.752;8.346;2023-03-12T01:49:24;27.43;;;10.97;;
48975;SDS011;34791;52.752;8.346;2023-03-12T01:52:00;27.02;;;10.95;;
48975;SDS011;34791;52.752;8.346;2023-03-12T01:54:32;28.50;;;12.60;;
48975;SDS011;34791;52.752;8.346;2023-03-12T01:57:02;30.03;;;10.90;;
48975;SDS011;34791;52.752;8.346;2023-03-12T01:59:31;27.47;;;11.30;;
48975;SDS011;34791;52.752;8.346;2023-03-12T02:02:01;23.92;;;11.13;;
48975;SDS011;34791;52.752;8.346;2023-03-12T02:04:27;24.10;;;10.97;;
48975;SDS011;34791;52.752;8.346;2023-03-12T02:06:57;29.77;;;11.67;;
48975;SDS011;34791;52.752;8.346;2023-03-12T02:09:28;33.63;;;11.93;;
48975;SDS011;34791;52.752;8.346;2023-03-12T02:11:56;38.97;;;12.37;;
48975;SDS011;34791;52.752;8.346;2023-03-12T02:14:22;31.97;;;12.80;;
48975;SDS011;34791;52.752;8.346;2023-03-12T02:16:47;32.60;;;13.23;;
48975;SDS011;34791;52.752;8.346;2023-03-12T02:19:18;35.33;;;13.67;;
48975;SDS011;34791;52.752;8.346;2023-03-12T02:22:02;32.53;;;13.23;;
48975;SDS011;34791;52.752;8.346;2023-03-12T02:27:04;26.87;;;12.63;;
48975;SDS011;34791;52.752;8.346;2023-03-12T02:29:31;28.93;;;13.10;;
48975;SDS011;34791;52.752;8.346;2023-03-12T02:31:58;32.57;;;13.07;;
48975;SDS011;34791;52.752;8.346;2023-03-12T02:34:26;31.30;;;13.03;;
48975;SDS011;34791;52.752;8.346;2023-03-12T02:36:52;35.37;;;13.80;;
48975;SDS011;34791;52.752;8.346;2023-03-12T02:39:17;35.47;;;13.97;;
48975;SDS011;34791;52.752;8.346;2023-03-12T02:41:44;32.53;;;14.00;;
48975;SDS011;34791;52.752;8.346;2023-03-12T02:44:20;30.17;;;14.23;;
48975;SDS011;34791;52.752;8.346;2023-03-12T02:46:48;34.87;;;13.93;;
48975;SDS011;34791;52.752;8.346;2023-03-12T02:49:16;30.70;;;13.80;;
48975;SDS011;34791;52.752;8.346;2023-03-12T02:51:43;35.00;;;14.23;;
48975;SDS011;34791;52.752;8.346;2023-03-12T02:54:10;32.53;;;14.43;;
48975;SDS011;34791;52.752;8.346;2023-03-12T02:56:36;27.83;;;13.90;;
48975;SDS011;34791;52.752;8.346;2023-03-12T02:59:02;36.90;;;14.53;;
48975;SDS011;34791;52.752;8.346;2023-03-12T03:01:28;33.70;;;14.57;;
48975;SDS011;34791;52.752;8.346;2023-03-12T03:03:54;36.73;;;14.63;;
48975;SDS011;34791;52.752;8.346;2023-03-12T03:06:19;34.13;;;14.13;;
48975;SDS011;34791;52.752;8.346;2023-03-12T03:08:45;35.47;;;13.73;;
48975;SDS011;34791;52.752;8.346;2023-03-12T03:11:10;32.63;;;12.37;;
48975;SDS011;34791;52.752;8.346;2023-03-12T03:13:36;33.77;;;14.07;;
48975;SDS011;34791;52.752;8.346;2023-03-12T03:16:01;27.93;;;13.27;;
48975;SDS011;34791;52.752;8.346;2023-03-12T03:18:28;32.40;;;12.93;;
48975;SDS011;34791;52.752;8.346;2023-03-12T03:20:55;29.03;;;13.53;;
48975;SDS011;34791;52.752;8.346;2023-03-12T03:23:30;28.53;;;12.80;;
48975;SDS011;34791;52.752;8.346;2023-03-12T03:25:57;31.23;;;14.10;;
48975;SDS011;34791;52.752;8.346;2023-03-12T03:28:23;27.70;;;13.23;;
48975;SDS011;34791;52.752;8.346;2023-03-12T03:30:53;30.60;;;14.37;;
48975;SDS011;34791;52.752;8.346;2023-03-12T03:35:47;27.63;;;13.23;;
48975;SDS011;34791;52.752;8.346;2023-03-12T03:38:13;29.33;;;14.20;;
48975;SDS011;34791;52.752;8.346;2023-03-12T03:40:38;28.37;;;13.40;;
48975;SDS011;34791;52.752;8.346;2023-03-12T03:43:03;30.60;;;14.37;;
48975;SDS011;34791;52.752;8.346;2023-03-12T03:45:29;25.37;;;13.40;;
48975;SDS011;34791;52.752;8.346;2023-03-12T03:47:54;26.93;;;14.10;;
48975;SDS011;34791;52.752;8.346;2023-03-12T03:50:19;28.83;;;13.20;;
48975;SDS011;34791;52.752;8.346;2023-03-12T03:52:45;25.37;;;13.57;;
48975;SDS011;34791;52.752;8.346;2023-03-12T03:55:10;32.20;;;13.80;;
48975;SDS011;34791;52.752;8.346;2023-03-12T03:57:35;24.80;;;13.97;;
48975;SDS011;34791;52.752;8.346;2023-03-12T04:00:01;27.13;;;13.83;;
48975;SDS011;34791;52.752;8.346;2023-03-12T04:02:32;25.40;;;13.13;;
48975;SDS011;34791;52.752;8.346;2023-03-12T04:04:59;22.97;;;12.33;;
48975;SDS011;34791;52.752;8.346;2023-03-12T04:07:25;25.13;;;12.93;;
48975;SDS011;34791;52.752;8.346;2023-03-12T04:09:50;19.43;;;11.33;;
48975;SDS011;34791;52.752;8.346;2023-03-12T04:12:16;25.30;;;12.33;;
48975;SDS011;34791;52.752;8.346;2023-03-12T04:14:41;24.97;;;11.17;;
48975;SDS011;34791;52.752;8.346;2023-03-12T04:17:07;22.87;;;11.20;;
48975;SDS011;34791;52.752;8.346;2023-03-12T04:19:33;19.77;;;11.00;;
48975;SDS011;34791;52.752;8.346;2023-03-12T04:21:58;18.97;;;9.93;;
48975;SDS011;34791;52.752;8.346;2023-03-12T04:24:24;19.83;;;9.80;;
48975;SDS011;34791;52.752;8.346;2023-03-12T04:26:49;16.37;;;9.00;;
48975;SDS011;34791;52.752;8.346;2023-03-12T04:29:15;16.07;;;8.73;;
48975;SDS011;34791;52.752;8.346;2023-03-12T04:31:42;20.63;;;8.87;;
48975;SDS011;34791;52.752;8.346;2023-03-12T04:34:07;16.00;;;8.43;;
48975;SDS011;34791;52.752;8.346;2023-03-12T04:36:33;15.93;;;8.60;;
48975;SDS011;34791;52.752;8.346;2023-03-12T04:38:58;20.80;;;8.50;;
48975;SDS011;34791;52.752;8.346;2023-03-12T04:41:24;14.47;;;7.73;;
48975;SDS011;34791;52.752;8.346;2023-03-12T04:43:49;13.63;;;6.80;;
48975;SDS011;34791;52.752;8.346;2023-03-12T04:46:15;16.13;;;7.10;;
48975;SDS011;34791;52.752;8.346;2023-03-12T04:48:40;15.63;;;7.73;;
48975;SDS011;34791;52.752;8.346;2023-03-12T04:51:05;13.70;;;6.83;;
48975;SDS011;34791;52.752;8.346;2023-03-12T04:53:31;10.40;;;6.20;;
48975;SDS011;34791;52.752;8.346;2023-03-12T04:55:57;12.60;;;6.90;;
48975;SDS011;34791;52.752;8.346;2023-03-12T04:58:23;13.43;;;6.87;;
48975;SDS011;34791;52.752;8.346;2023-03-12T05:00:48;15.17;;;6.93;;
48975;SDS011;34791;52.752;8.346;2023-03-12T05:03:15;14.33;;;7.33;;
48975;SDS011;34791;52.752;8.346;2023-03-12T05:05:40;11.13;;;6.70;;
48975;SDS011;34791;52.752;8.346;2023-03-12T05:08:06;10.60;;;6.10;;
48975;SDS011;34791;52.752;8.346;2023-03-12T05:10:31;12.60;;;6.90;;
48975;SDS011;34791;52.752;8.346;2023-03-12T05:12:57;11.93;;;6.47;;
48975;SDS011;34791;52.752;8.346;2023-03-12T05:15:22;13.03;;;6.90;;
48975;SDS011;34791;52.752;8.346;2023-03-12T05:17:48;14.40;;;6.43;;
48975;SDS011;34791;52.752;8.346;2023-03-12T05:20:13;11.40;;;6.30;;
48975;SDS011;34791;52.752;8.346;2023-03-12T05:22:39;14.00;;;7.03;;
48975;SDS011;34791;52.752;8.346;2023-03-12T05:25:05;17.87;;;7.00;;
48975;SDS011;34791;52.752;8.346;2023-03-12T05:27:31;10.27;;;6.73;;
48975;SDS011;34791;52.752;8.346;2023-03-12T05:29:56;10.97;;;6.13;;
48975;SDS011;34791;52.752;8.346;2023-03-12T05:32:22;11.37;;;6.17;;
48975;SDS011;34791;52.752;8.346;2023-03-12T05:34:47;12.77;;;6.63;;
48975;SDS011;34791;52.752;8.346;2023-03-12T05:37:13;10.73;;;6.17;;
48975;SDS011;34791;52.752;8.346;2023-03-12T05:39:38;11.63;;;5.87;;
48975;SDS011;34791;52.752;8.346;2023-03-12T05:42:10;11.00;;;6.87;;
48975;SDS011;34791;52.752;8.346;2023-03-12T05:44:36;14.83;;;6.27;;
48975;SDS011;34791;52.752;8.346;2023-03-12T05:47:02;12.33;;;6.07;;
48975;SDS011;34791;52.752;8.346;2023-03-12T05:49:27;13.07;;;6.47;;
48975;SDS011;34791;52.752;8.346;2023-03-12T05:51:52;7.17;;;4.57;;
48975;SDS011;34791;52.752;8.346;2023-03-12T05:54:18;9.53;;;6.37;;
48975;SDS011;34791;52.752;8.346;2023-03-12T05:56:43;12.20;;;6.50;;
48975;SDS011;34791;52.752;8.346;2023-03-12T05:59:09;10.50;;;7.03;;
48975;SDS011;34791;52.752;8.346;2023-03-12T06:01:34;12.67;;;6.83;;
48975;SDS011;34791;52.752;8.346;2023-03-12T06:04:00;11.23;;;6.23;;
48975;SDS011;34791;52.752;8.346;2023-03-12T06:06:25;11.27;;;6.33;;
48975;SDS011;34791;52.752;8.346;2023-03-12T06:08:51;12.27;;;7.00;;
48975;SDS011;34791;52.752;8.346;2023-03-12T06:11:16;13.47;;;6.23;;
48975;SDS011;34791;52.752;8.346;2023-03-12T06:13:42;10.23;;;5.90;;
48975;SDS011;34791;52.752;8.346;2023-03-12T06:16:08;9.00;;;5.60;;
48975;SDS011;34791;52.752;8.346;2023-03-12T06:18:39;8.52;;;4.78;;
48975;SDS011;34791;52.752;8.346;2023-03-12T06:21:08;10.20;;;5.20;;
48975;SDS011;34791;52.752;8.346;2023-03-12T06:23:41;7.77;;;4.97;;
48975;SDS011;34791;52.752;8.346;2023-03-12T06:26:07;9.13;;;4.30;;
48975;SDS011;34791;52.752;8.346;2023-03-12T06:28:34;12.47;;;4.30;;
48975;SDS011;34791;52.752;8.346;2023-03-12T06:31:00;10.60;;;5.53;;
48975;SDS011;34791;52.752;8.346;2023-03-12T06:33:26;7.33;;;3.43;;
48975;SDS011;34791;52.752;8.346;2023-03-12T06:35:58;7.40;;;4.63;;
48975;SDS011;34791;52.752;8.346;2023-03-12T06:38:25;11.33;;;6.00;;
48975;SDS011;34791;52.752;8.346;2023-03-12T06:40:57;7.03;;;3.53;;
48975;SDS011;34791;52.752;8.346;2023-03-12T06:43:24;11.47;;;6.13;;
48975;SDS011;34791;52.752;8.346;2023-03-12T06:45:53;10.27;;;5.60;;
48975;SDS011;34791;52.752;8.346;2023-03-12T06:48:19;6.77;;;3.97;;
48975;SDS011;34791;52.752;8.346;2023-03-12T06:50:45;7.97;;;4.60;;
48975;SDS011;34791;52.752;8.346;2023-03-12T06:53:10;9.87;;;4.80;;
48975;SDS011;34791;52.752;8.346;2023-03-12T06:55:35;10.60;;;4.47;;
48975;SDS011;34791;52.752;8.346;2023-03-12T06:58:01;14.87;;;6.03;;
48975;SDS011;34791;52.752;8.346;2023-03-12T07:00:28;10.47;;;5.73;;
48975;SDS011;34791;52.752;8.346;2023-03-12T07:02:54;7.63;;;4.93;;
48975;SDS011;34791;52.752;8.346;2023-03-12T07:05:19;9.80;;;6.60;;
48975;SDS011;34791;52.752;8.346;2023-03-12T07:07:45;11.57;;;6.53;;
48975;SDS011;34791;52.752;8.346;2023-03-12T07:10:10;9.17;;;5.20;;
48975;SDS011;34791;52.752;8.346;2023-03-12T07:12:36;11.13;;;5.50;;
48975;SDS011;34791;52.752;8.346;2023-03-12T07:15:01;8.27;;;4.47;;
48975;SDS011;34791;52.752;8.346;2023-03-12T07:17:27;8.00;;;4.53;;
48975;SDS011;34791;52.752;8.346;2023-03-12T07:19:52;10.23;;;5.07;;
48975;SDS011;34791;52.752;8.346;2023-03-12T07:22:18;9.83;;;5.57;;
48975;SDS011;34791;52.752;8.346;2023-03-12T07:24:43;11.73;;;5.30;;
48975;SDS011;34791;52.752;8.346;2023-03-12T07:27:08;10.97;;;5.60;;
48975;SDS011;34791;52.752;8.346;2023-03-12T07:29:34;13.23;;;5.87;;
48975;SDS011;34791;52.752;8.346;2023-03-12T07:31:59;9.07;;;3.50;;
48975;SDS011;34791;52.752;8.346;2023-03-12T07:34:24;6.90;;;4.30;;
48975;SDS011;34791;52.752;8.346;2023-03-12T07:36:50;10.23;;;4.90;;
48975;SDS011;34791;52.752;8.346;2023-03-12T07:39:15;8.37;;;4.07;;
48975;SDS011;34791;52.752;8.346;2023-03-12T07:41:41;13.97;;;5.93;;
48975;SDS011;34791;52.752;8.346;2023-03-12T07:44:07;10.27;;;5.83;;
48975;SDS011;34791;52.752;8.346;2023-03-12T07:46:33;8.57;;;4.40;;
48975;SDS011;34791;52.752;8.346;2023-03-12T07:48:59;10.37;;;3.87;;
48975;SDS011;34791;52.752;8.346;2023-03-12T07:51:25;9.80;;;4.50;;
48975;SDS011;34791;52.752;8.346;2023-03-12T07:53:50;10.43;;;5.43;;
48975;SDS011;34791;52.752;8.346;2023-03-12T07:56:15;9.03;;;5.23;;
48975;SDS011;34791;52.752;8.346;2023-03-12T07:58:41;9.60;;;3.93;;
48975;SDS011;34791;52.752;8.346;2023-03-12T08:01:06;6.60;;;3.43;;
48975;SDS011;34791;52.752;8.346;2023-03-12T08:03:32;13.40;;;5.33;;
48975;SDS011;34791;52.752;8.346;2023-03-12T08:05:58;13.17;;;5.60;;
48975;SDS011;34791;52.752;8.346;2023-03-12T08:08:25;9.63;;;4.97;;
48975;SDS011;34791;52.752;8.346;2023-03-12T08:10:51;6.47;;;4.27;;
48975;SDS011;34791;52.752;8.346;2023-03-12T08:13:17;10.73;;;4.47;;
48975;SDS011;34791;52.752;8.346;2023-03-12T08:15:43;10.97;;;5.27;;
48975;SDS011;34791;52.752;8.346;2023-03-12T08:18:08;8.33;;;4.37;;
48975;SDS011;34791;52.752;8.346;2023-03-12T08:20:34;7.97;;;4.80;;
48975;SDS011;34791;52.752;8.346;2023-03-12T08:22:59;10.30;;;5.33;;
48975;SDS011;34791;52.752;8.346;2023-03-12T08:25:25;10.80;;;4.70;;
48975;SDS011;34791;52.752;8.346;2023-03-12T08:27:50;8.43;;;4.30;;
48975;SDS011;34791;52.752;8.346;2023-03-12T08:30:16;9.13;;;3.70;;
48975;SDS011;34791;52.752;8.346;2023-03-12T08:32:41;5.90;;;2.90;;
48975;SDS011;34791;52.752;8.346;2023-03-12T08:35:07;13.60;;;4.60;;
48975;SDS011;34791;52.752;8.346;2023-03-12T08:37:34;6.97;;;4.10;;
48975;SDS011;34791;52.752;8.346;2023-03-12T08:39:59;10.47;;;3.67;;
48975;SDS011;34791;52.752;8.346;2023-03-12T08:42:25;9.50;;;4.30;;
48975;SDS011;34791;52.752;8.346;2023-03-12T08:44:50;9.30;;;3.83;;
48975;SDS011;34791;52.752;8.346;2023-03-12T08:47:16;5.50;;;2.60;;
48975;SDS011;34791;52.752;8.346;2023-03-12T08:49:41;10.80;;;3.23;;
48975;SDS011;34791;52.752;8.346;2023-03-12T08:52:06;8.30;;;4.30;;
48975;SDS011;34791;52.752;8.346;2023-03-12T08:54:32;8.37;;;4.10;;
48975;SDS011;34791;52.752;8.346;2023-03-12T08:56:57;9.27;;;4.10;;
48975;SDS011;34791;52.752;8.346;2023-03-12T08:59:22;9.77;;;4.10;;
48975;SDS011;34791;52.752;8.346;2023-03-12T09:01:48;7.37;;;3.60;;
48975;SDS011;34791;52.752;8.346;2023-03-12T09:04:14;7.00;;;3.23;;
48975;SDS011;34791;52.752;8.346;2023-03-12T09:06:40;7.00;;;3.10;;
48975;SDS011;34791;52.752;8.346;2023-03-12T09:09:05;7.10;;;3.80;;
48975;SDS011;34791;52.752;8.346;2023-03-12T09:11:33;8.80;;;3.80;;
48975;SDS011;34791;52.752;8.346;2023-03-12T09:14:00;5.53;;;3.53;;
48975;SDS011;34791;52.752;8.346;2023-03-12T09:16:26;5.40;;;2.83;;
48975;SDS011;34791;52.752;8.346;2023-03-12T09:18:52;6.27;;;3.30;;
48975;SDS011;34791;52.752;8.346;2023-03-12T09:21:18;5.67;;;3.10;;
48975;SDS011;34791;52.752;8.346;2023-03-12T09:23:43;8.20;;;4.17;;
48975;SDS011;34791;52.752;8.346;2023-03-12T09:26:09;5.70;;;3.07;;
48975;SDS011;34791;52.752;8.346;2023-03-12T09:28:35;9.17;;;3.30;;
48975;SDS011;34791;52.752;8.346;2023-03-12T09:31:01;10.03;;;3.53;;
48975;SDS011;34791;52.752;8.346;2023-03-12T09:33:27;6.50;;;3.20;;
48975;SDS011;34791;52.752;8.346;2023-03-12T09:35:56;6.27;;;3.30;;
48975;SDS011;34791;52.752;8.346;2023-03-12T09:38:23;7.53;;;4.17;;
48975;SDS011;34791;52.752;8.346;2023-03-12T09:40:48;7.50;;;3.67;;
48975;SDS011;34791;52.752;8.346;2023-03-12T09:43:18;8.23;;;3.40;;
48975;SDS011;34791;52.752;8.346;2023-03-12T09:45:49;6.77;;;3.20;;
48975;SDS011;34791;52.752;8.346;2023-03-12T09:48:17;5.80;;;3.20;;
48975;SDS011;34791;52.752;8.346;2023-03-12T09:50:50;5.57;;;2.90;;
48975;SDS011;34791;52.752;8.346;2023-03-12T09:56:05;7.97;;;3.30;;
48975;SDS011;34791;52.752;8.346;2023-03-12T09:58:37;5.37;;;2.70;;
48975;SDS011;34791;52.752;8.346;2023-03-12T10:01:11;7.90;;;3.10;;
48975;SDS011;34791;52.752;8.346;2023-03-12T10:07:01;5.73;;;2.67;;
48975;SDS011;34791;52.752;8.346;2023-03-12T10:21:00;12.00;;;4.27;;
48975;SDS011;34791;52.752;8.346;2023-03-12T10:26:21;10.18;;;4.88;;
48975;SDS011;34791;52.752;8.346;2023-03-12T10:28:50;9.37;;;4.60;;
48975;SDS011;34791;52.752;8.346;2023-03-12T10:34:37;8.63;;;4.73;;
48975;SDS011;34791;52.752;8.346;2023-03-12T10:39:42;11.60;;;5.63;;
48975;SDS011;34791;52.752;8.346;2023-03-12T10:42:18;8.00;;;4.60;;
48975;SDS011;34791;52.752;8.346;2023-03-12T10:44:46;11.17;;;5.87;;
48975;SDS011;34791;52.752;8.346;2023-03-12T10:52:36;10.40;;;6.20;;
48975;SDS011;34791;52.752;8.346;2023-03-12T10:55:04;11.90;;;6.30;;
48975;SDS011;34791;52.752;8.346;2023-03-12T10:57:39;11.03;;;5.80;;
48975;SDS011;34791;52.752;8.346;2023-03-12T11:00:06;13.37;;;6.23;;
48975;SDS011;34791;52.752;8.346;2023-03-12T11:02:40;10.43;;;5.50;;
48975;SDS011;34791;52.752;8.346;2023-03-12T11:07:46;10.30;;;5.83;;
48975;SDS011;34791;52.752;8.346;2023-03-12T11:10:13;9.53;;;5.00;;
48975;SDS011;34791;52.752;8.346;2023-03-12T11:12:50;10.87;;;6.27;;
48975;SDS011;34791;52.752;8.346;2023-03-12T11:23:35;11.17;;;6.07;;
48975;SDS011;34791;52.752;8.346;2023-03-12T11:26:22;11.53;;;5.87;;
48975;SDS011;34791;52.752;8.346;2023-03-12T11:32:02;15.37;;;7.47;;
48975;SDS011;34791;52.752;8.346;2023-03-12T11:34:38;12.70;;;8.07;;
48975;SDS011;34791;52.752;8.346;2023-03-12T12:05:32;13.33;;;8.83;;
48975;SDS011;34791;52.752;8.346;2023-03-12T12:11:18;14.03;;;9.00;;
48975;SDS011;34791;52.752;8.346;2023-03-12T12:24:26;17.27;;;10.30;;
48975;SDS011;34791;52.752;8.346;2023-03-12T12:27:20;16.70;;;10.63;;
48975;SDS011;34791;52.752;8.346;2023-03-12T12:32:31;18.97;;;10.83;;
48975;SDS011;34791;52.752;8.346;2023-03-12T12:35:18;18.23;;;10.97;;
48975;SDS011;34791;52.752;8.346;2023-03-12T12:38:02;23.13;;;11.30;;
48975;SDS011;34791;52.752;8.346;2023-03-12T12:45:47;19.23;;;11.43;;
48975;SDS011;34791;52.752;8.346;2023-03-12T12:48:21;16.53;;;11.00;;
48975;SDS011;34791;52.752;8.346;2023-03-12T12:50:51;18.67;;;10.60;;
48975;SDS011;34791;52.752;8.346;2023-03-12T12:53:20;18.77;;;11.20;;
48975;SDS011;34791;52.752;8.346;2023-03-12T12:55:54;19.57;;;11.53;;
48975;SDS011;34791;52.752;8.346;2023-03-12T12:59:00;16.23;;;10.10;;
48975;SDS011;34791;52.752;8.346;2023-03-12T13:01:41;15.87;;;10.53;;
48975;SDS011;34791;52.752;8.346;2023-03-12T13:04:12;19.13;;;11.03;;
48975;SDS011;34791;52.752;8.346;2023-03-12T13:09:19;18.37;;;10.73;;
48975;SDS011;34791;52.752;8.346;2023-03-12T13:11:47;13.23;;;8.70;;
48975;SDS011;34791;52.752;8.346;2023-03-12T13:14:18;18.33;;;10.93;;
48975;SDS011;34791;52.752;8.346;2023-03-12T13:16:46;16.80;;;11.03;;
48975;SDS011;34791;52.752;8.346;2023-03-12T13:29:48;20.53;;;12.40;;
48975;SDS011;34791;52.752;8.346;2023-03-12T13:34:58;18.67;;;11.67;;
48975;SDS011;34791;52.752;8.346;2023-03-12T13:43:14;19.93;;;12.90;;
48975;SDS011;34791;52.752;8.346;2023-03-12T13:48:23;24.73;;;13.33;;
48975;SDS011;34791;52.752;8.346;2023-03-12T13:50:56;21.70;;;13.27;;
48975;SDS011;34791;52.752;8.346;2023-03-12T13:53:31;23.13;;;13.77;;
48975;SDS011;34791;52.752;8.346;2023-03-12T13:56:06;21.77;;;13.33;;
48975;SDS011;34791;52.752;8.346;2023-03-12T13:58:48;23.03;;;14.20;;
48975;SDS011;34791;52.752;8.346;2023-03-12T14:01:20;24.30;;;13.93;;
48975;SDS011;34791;52.752;8.346;2023-03-12T14:03:52;24.90;;;15.90;;
48975;SDS011;34791;52.752;8.346;2023-03-12T14:06:25;24.77;;;15.93;;
48975;SDS011;34791;52.752;8.346;2023-03-12T14:12:03;28.70;;;17.40;;
48975;SDS011;34791;52.752;8.346;2023-03-12T14:17:18;31.53;;;18.53;;
48975;SDS011;34791;52.752;8.346;2023-03-12T14:22:20;27.58;;;16.20;;
48975;SDS011;34791;52.752;8.346;2023-03-12T14:24:49;27.07;;;15.23;;
48975;SDS011;34791;52.752;8.346;2023-03-12T14:27:20;32.70;;;19.47;;
48975;SDS011;34791;52.752;8.346;2023-03-12T14:29:57;39.57;;;20.07;;
48975;SDS011;34791;52.752;8.346;2023-03-12T14:32:34;38.67;;;19.83;;
48975;SDS011;34791;52.752;8.346;2023-03-12T14:35:22;40.77;;;21.87;;
48975;SDS011;34791;52.752;8.346;2023-03-12T14:38:06;35.27;;;20.37;;
48975;SDS011;34791;52.752;8.346;2023-03-12T14:40:59;35.00;;;19.60;;
48975;SDS011;34791;52.752;8.346;2023-03-12T14:43:37;30.37;;;16.97;;
48975;SDS011;34791;52.752;8.346;2023-03-12T14:46:04;38.77;;;20.03;;
48975;SDS011;34791;52.752;8.346;2023-03-12T14:48:38;39.83;;;21.60;;
48975;SDS011;34791;52.752;8.346;2023-03-12T14:51:04;39.53;;;21.23;;
48975;SDS011;34791;52.752;8.346;2023-03-12T14:53:34;37.07;;;19.47;;
48975;SDS011;34791;52.752;8.346;2023-03-12T14:56:03;33.10;;;18.10;;
48975;SDS011;34791;52.752;8.346;2023-03-12T14:58:49;35.83;;;19.80;;
48975;SDS011;34791;52.752;8.346;2023-03-12T15:01:19;43.33;;;24.03;;
48975;SDS011;34791;52.752;8.346;2023-03-12T15:03:48;40.83;;;22.03;;
48975;SDS011;34791;52.752;8.346;2023-03-12T15:06:30;35.07;;;18.57;;
48975;SDS011;34791;52.752;8.346;2023-03-12T15:08:58;33.70;;;17.77;;
48975;SDS011;34791;52.752;8.346;2023-03-12T15:11:28;39.43;;;20.57;;
48975;SDS011;34791;52.752;8.346;2023-03-12T15:13:56;35.40;;;20.63;;
48975;SDS011;34791;52.752;8.346;2023-03-12T15:16:28;36.43;;;19.23;;
48975;SDS011;34791;52.752;8.346;2023-03-12T15:18:54;32.43;;;18.73;;
48975;SDS011;34791;52.752;8.346;2023-03-12T15:21:20;28.97;;;15.07;;
48975;SDS011;34791;52.752;8.346;2023-03-12T15:23:47;30.60;;;16.67;;
48975;SDS011;34791;52.752;8.346;2023-03-12T15:31:22;21.73;;;10.30;;
48975;SDS011;34791;52.752;8.346;2023-03-12T15:33:58;28.90;;;15.97;;
48975;SDS011;34791;52.752;8.346;2023-03-12T15:36:26;20.87;;;10.93;;
48975;SDS011;34791;52.752;8.346;2023-03-12T15:38:54;30.43;;;16.63;;
48975;SDS011;34791;52.752;8.346;2023-03-12T15:41:27;30.38;;;14.55;;
48975;SDS011;34791;52.752;8.346;2023-03-12T15:44:23;27.63;;;14.93;;
48975;SDS011;34791;52.752;8.346;2023-03-12T15:46:55;31.43;;;15.13;;
48975;SDS011;34791;52.752;8.346;2023-03-12T15:49:29;26.10;;;12.90;;
48975;SDS011;34791;52.752;8.346;2023-03-12T15:51:57;34.37;;;17.10;;
48975;SDS011;34791;52.752;8.346;2023-03-12T15:54:29;37.40;;;16.93;;
48975;SDS011;34791;52.752;8.346;2023-03-12T15:57:15;30.80;;;14.10;;
48975;SDS011;34791;52.752;8.346;2023-03-12T15:59:43;37.30;;;15.87;;
48975;SDS011;34791;52.752;8.346;2023-03-12T16:02:32;28.13;;;14.75;;
48975;SDS011;34791;52.752;8.346;2023-03-12T16:05:00;34.03;;;15.87;;
48975;SDS011;34791;52.752;8.346;2023-03-12T16:07:25;39.30;;;17.33;;
48975;SDS011;34791;52.752;8.346;2023-03-12T16:09:51;42.37;;;19.47;;
48975;SDS011;34791;52.752;8.346;2023-03-12T16:12:17;47.63;;;19.83;;
48975;SDS011;34791;52.752;8.346;2023-03-12T16:14:42;41.33;;;19.00;;
48975;SDS011;34791;52.752;8.346;2023-03-12T16:17:12;47.67;;;20.33;;
48975;SDS011;34791;52.752;8.346;2023-03-12T16:19:41;37.90;;;19.40;;
48975;SDS011;34791;52.752;8.346;2023-03-12T16:22:06;43.33;;;20.47;;
48975;SDS011;34791;52.752;8.346;2023-03-12T16:24:31;54.03;;;20.73;;
48975;SDS011;34791;52.752;8.346;2023-03-12T16:26:57;51.57;;;22.03;;
48975;SDS011;34791;52.752;8.346;2023-03-12T16:29:31;45.57;;;21.93;;
48975;SDS011;34791;52.752;8.346;2023-03-12T16:31:58;46.40;;;20.23;;
48975;SDS011;34791;52.752;8.346;2023-03-12T16:34:24;50.90;;;22.57;;
48975;SDS011;34791;52.752;8.346;2023-03-12T16:36:51;48.93;;;22.63;;
48975;SDS011;34791;52.752;8.346;2023-03-12T16:39:16;52.97;;;21.83;;
48975;SDS011;34791;52.752;8.346;2023-03-12T16:41:42;51.97;;;21.77;;
48975;SDS011;34791;52.752;8.346;2023-03-12T16:44:08;50.60;;;22.07;;
48975;SDS011;34791;52.752;8.346;2023-03-12T16:46:39;52.10;;;23.63;;
48975;SDS011;34791;52.752;8.346;2023-03-12T16:49:05;60.87;;;25.40;;
48975;SDS011;34791;52.752;8.346;2023-03-12T16:51:30;64.43;;;24.97;;
48975;SDS011;34791;52.752;8.346;2023-03-12T16:53:56;58.00;;;24.47;;
48975;SDS011;34791;52.752;8.346;2023-03-12T16:56:23;56.67;;;23.50;;